createdAt,value
2022-08-07T00:01:00.032Z,100082.88
2022-08-07T00:04:16.136Z,100079.47
2022-08-07T00:07:18.925Z,100082.62
2022-08-07T00:10:27.095Z,100082.47
2022-08-07T00:13:33.479Z,100084.28
2022-08-07T00:16:43.435Z,100086.25
2022-08-07T00:20:02.926Z,100079.75
2022-08-07T00:23:09.191Z,100087.28
2022-08-07T00:26:48.627Z,100088.47
2022-08-07T00:29:37.171Z,100081.50
2022-08-07T00:32:40.011Z,100085.50
2022-08-07T00:35:46.513Z,100085.06
2022-08-07T00:38:52.222Z,100082.56
2022-08-07T00:42:01.962Z,100089.75
2022-08-07T00:45:08.887Z,100092.69
2022-08-07T00:48:19.554Z,100079.97
2022-08-07T00:51:57.127Z,100079.50
2022-08-07T00:54:54.951Z,100079.12
2022-08-07T00:57:57.752Z,100072.75
2022-08-07T01:01:00.613Z,100076.06
2022-08-07T01:04:08.283Z,100076.66
2022-08-07T01:07:12.668Z,100076.44
2022-08-07T01:10:17.146Z,100075.16
2022-08-07T01:13:21.995Z,100067.84
2022-08-07T01:16:29.994Z,100069.97
2022-08-07T01:19:34.702Z,100066.78
2022-08-07T01:22:47.045Z,100073.94
2022-08-07T01:26:04.716Z,100072.66
2022-08-07T01:29:07.557Z,100076.75
2022-08-07T01:32:12.503Z,100077.00
2022-08-07T01:35:17.288Z,100082.41
2022-08-07T01:38:25.003Z,100083.12
2022-08-07T01:41:30.362Z,100073.50
2022-08-07T01:44:36.149Z,100069.47
2022-08-07T01:48:19.519Z,100069.12
2022-08-07T01:51:24.418Z,100080.87
2022-08-07T01:54:36.819Z,100066.16
2022-08-07T01:58:01.340Z,100072.66
2022-08-07T02:01:59.381Z,100079.00
2022-08-07T02:04:55.945Z,100073.12
2022-08-07T02:08:03.590Z,100080.28
2022-08-07T02:11:10.485Z,100078.66
2022-08-07T02:14:40.819Z,100079.94
2022-08-07T02:17:49.213Z,100081.59
2022-08-07T02:20:57.367Z,100090.84
2022-08-07T02:24:01.567Z,100095.84
2022-08-07T02:27:05.410Z,100093.56
2022-08-07T02:30:10.174Z,100094.22
2022-08-07T02:33:14.274Z,100091.16
2022-08-07T02:36:28.599Z,100088.75
2022-08-07T02:39:43.368Z,100094.81
2022-08-07T02:43:08.066Z,100098.81
2022-08-07T02:46:11.688Z,100107.09
2022-08-07T02:49:28.652Z,100104.81
2022-08-07T02:53:06.107Z,100104.16
2022-08-07T02:56:21.276Z,100109.62
2022-08-07T02:59:27.567Z,100105.00
2022-08-07T03:02:31.954Z,100095.00
2022-08-07T03:05:37.807Z,100103.34
2022-08-07T03:08:41.725Z,100103.09
2022-08-07T03:11:52.684Z,100110.63
2022-08-07T03:15:02.454Z,100110.09
2022-08-07T03:18:12.017Z,100112.44
2022-08-07T03:21:24.499Z,100110.84
2022-08-07T03:24:28.323Z,100109.59
2022-08-07T03:27:59.574Z,100105.88
2022-08-07T03:31:15.783Z,100116.88
2022-08-07T03:34:22.200Z,100108.34
2022-08-07T03:37:27.636Z,100100.19
2022-08-07T03:40:36.153Z,100116.13
2022-08-07T03:43:39.906Z,100130.69
2022-08-07T03:47:13.911Z,100130.25
2022-08-07T03:50:23.447Z,100120.59
2022-08-07T03:53:30.251Z,100124.38
2022-08-07T03:57:03.909Z,100122.19
2022-08-07T04:00:12.057Z,100136.16
2022-08-07T04:03:18.954Z,100145.25
2022-08-07T04:06:37.722Z,100144.28
2022-08-07T04:09:50.167Z,100144.28
2022-08-07T04:12:54.655Z,100149.47
2022-08-07T04:15:58.685Z,100157.06
2022-08-07T04:19:14.713Z,100160.13
2022-08-07T04:22:22.862Z,100152.25
2022-08-07T04:25:29.303Z,100159.53
2022-08-07T04:28:33.159Z,100165.53
2022-08-07T04:32:09.726Z,100167.19
2022-08-07T04:35:05.737Z,100172.22
2022-08-07T04:38:11.465Z,100179.84
2022-08-07T04:41:19.148Z,100176.37
2022-08-07T04:44:24.537Z,100170.28
2022-08-07T04:48:03.875Z,100172.47
2022-08-07T04:51:27.065Z,100174.09
2022-08-07T04:55:14.933Z,100177.94
2022-08-07T05:02:43.977Z,100189.31
2022-08-07T05:06:16.304Z,100206.09
2022-08-07T05:09:46.251Z,100201.97
2022-08-07T05:12:58.371Z,100210.53
2022-08-07T05:16:06.771Z,100201.41
2022-08-07T05:19:15.756Z,100205.66
2022-08-07T05:22:26.929Z,100199.28
2022-08-07T05:25:36.631Z,100212.97
2022-08-07T05:28:58.040Z,100215.06
2022-08-07T05:32:02.005Z,100211.00
2022-08-07T05:35:07.782Z,100217.34
2022-08-07T05:38:11.272Z,100221.41
2022-08-07T05:41:16.998Z,100213.41
2022-08-07T05:44:29.445Z,100216.63
2022-08-07T05:47:38.226Z,100222.97
2022-08-07T05:51:01.201Z,100224.50
2022-08-07T05:54:11.926Z,100220.16
2022-08-07T05:57:30.374Z,100218.38
2022-08-07T06:00:38.347Z,100228.38
2022-08-07T06:03:53.762Z,100217.91
2022-08-07T06:07:05.968Z,100218.81
2022-08-07T06:10:11.242Z,100216.75
2022-08-07T06:13:18.572Z,100229.00
2022-08-07T06:16:24.252Z,100224.31
2022-08-07T06:19:51.844Z,100227.06
2022-08-07T06:23:24.616Z,100227.53
2022-08-07T06:26:20.671Z,100223.72
2022-08-07T06:29:28.144Z,100232.31
2022-08-07T06:32:32.671Z,100233.19
2022-08-07T06:35:45.662Z,100239.31
2022-08-07T06:38:58.703Z,100238.84
2022-08-07T06:42:43.792Z,100237.91
2022-08-07T06:45:50.012Z,100248.16
2022-08-07T06:48:53.045Z,100244.66
2022-08-07T06:52:02.891Z,100252.81
2022-08-07T06:55:33.048Z,100244.44
2022-08-07T06:58:39.798Z,100254.81
2022-08-07T07:02:03.274Z,100243.38
2022-08-07T07:05:06.426Z,100237.84
2022-08-07T07:08:12.459Z,100246.50
2022-08-07T07:12:07.747Z,100252.91
2022-08-07T07:15:09.068Z,100253.16
2022-08-07T07:18:47.090Z,100256.81
2022-08-07T07:22:05.410Z,100260.94
2022-08-07T07:26:32.094Z,100262.00
2022-08-07T07:29:38.609Z,100258.44
2022-08-07T07:32:08.721Z,100255.75
2022-08-07T07:35:12.389Z,100254.22
2022-08-07T07:38:15.827Z,100254.81
2022-08-07T07:41:22.079Z,100253.28
2022-08-07T07:44:34.139Z,100258.94
2022-08-07T07:47:52.158Z,100256.81
2022-08-07T07:50:56.062Z,100252.69
2022-08-07T07:53:59.840Z,100247.59
2022-08-07T07:57:05.558Z,100251.97
2022-08-07T08:00:09.412Z,100252.94
2022-08-07T08:03:16.747Z,100251.03
2022-08-07T08:06:48.139Z,100251.25
2022-08-07T08:10:05.334Z,100254.56
2022-08-07T08:13:10.664Z,100247.50
2022-08-07T08:16:20.201Z,100247.25
2022-08-07T08:20:18.886Z,100241.59
2022-08-07T08:23:14.444Z,100247.34
2022-08-07T08:26:36.946Z,100240.63
2022-08-07T08:29:55.877Z,100240.47
2022-08-07T08:33:01.557Z,100241.53
2022-08-07T08:36:05.715Z,100250.13
2022-08-07T08:39:10.711Z,100250.72
2022-08-07T08:42:25.865Z,100249.41
2022-08-07T08:45:58.312Z,100261.56
2022-08-07T08:49:33.588Z,100252.22
2022-08-07T08:52:54.415Z,100247.53
2022-08-07T08:56:01.315Z,100249.56
2022-08-07T08:59:16.674Z,100249.44
2022-08-07T09:02:37.806Z,100254.72
2022-08-07T09:05:52.210Z,100259.44
2022-08-07T09:09:21.137Z,100245.31
2022-08-07T09:12:41.815Z,100246.56
2022-08-07T09:16:23.614Z,100260.56
2022-08-07T09:19:56.630Z,100259.94
2022-08-07T09:24:33.579Z,100256.19
2022-08-07T09:26:47.750Z,100250.87
2022-08-07T09:30:08.435Z,100242.97
2022-08-07T09:33:41.090Z,100248.47
2022-08-07T09:37:03.814Z,100240.97
2022-08-07T09:40:12.715Z,100233.69
2022-08-07T09:43:40.302Z,100243.13
2022-08-07T09:47:51.624Z,100237.78
2022-08-07T09:51:01.688Z,100240.94
2022-08-07T09:54:07.186Z,100234.81
2022-08-07T09:57:52.560Z,100232.12
2022-08-07T10:01:51.302Z,100223.53
2022-08-07T10:05:18.092Z,100218.03
2022-08-07T10:09:01.739Z,100220.63
2022-08-07T10:12:21.934Z,100208.06
2022-08-07T10:15:47.815Z,100206.34
2022-08-07T10:19:11.552Z,100199.53
2022-08-07T10:22:45.307Z,100197.13
2022-08-07T10:26:07.359Z,100195.16
2022-08-07T10:29:20.302Z,100193.00
2022-08-07T10:32:51.480Z,100193.63
2022-08-07T10:36:13.230Z,100187.62
2022-08-07T10:39:41.592Z,100190.63
2022-08-07T10:43:34.365Z,100187.34
2022-08-07T10:47:11.735Z,100177.13
2022-08-07T10:50:50.317Z,100180.13
2022-08-07T10:54:18.189Z,100175.53
2022-08-07T10:57:43.810Z,100164.44
2022-08-07T11:01:35.674Z,100164.06
2022-08-07T11:05:50.970Z,100158.16
2022-08-07T11:09:03.905Z,100151.97
2022-08-07T11:12:35.299Z,100152.50
2022-08-07T11:15:40.048Z,100143.81
2022-08-07T11:18:51.030Z,100144.56
2022-08-07T11:22:03.719Z,100145.19
2022-08-07T11:25:23.736Z,100136.72
2022-08-07T11:28:31.272Z,100133.22
2022-08-07T11:31:54.212Z,100134.47
2022-08-07T11:34:59.260Z,100132.81
2022-08-07T11:38:17.392Z,100123.91
2022-08-07T11:42:00.350Z,100125.81
2022-08-07T11:44:57.826Z,100125.22
2022-08-07T11:48:29.353Z,100116.59
2022-08-07T11:51:50.534Z,100128.66
2022-08-07T11:55:12.912Z,100116.84
2022-08-07T11:58:33.598Z,100112.97
2022-08-07T12:02:00.835Z,100115.06
2022-08-07T12:05:41.241Z,100117.25
2022-08-07T12:08:53.983Z,100105.66
2022-08-07T12:12:29.114Z,100107.28
2022-08-07T12:15:57.927Z,100107.50
2022-08-07T12:19:05.113Z,100098.31
2022-08-07T12:22:37.239Z,100093.41
2022-08-07T12:26:22.709Z,100087.16
2022-08-07T12:29:37.686Z,100087.91
2022-08-07T12:32:45.725Z,100084.03
2022-08-07T12:35:57.787Z,100080.56
2022-08-07T12:39:09.287Z,100073.19
2022-08-07T12:42:32.128Z,100076.59
2022-08-07T12:45:58.796Z,100073.41
2022-08-07T12:49:39.637Z,100064.63
2022-08-07T12:52:52.913Z,100061.75
2022-08-07T12:56:04.105Z,100070.84
2022-08-07T12:59:20.820Z,100067.63
2022-08-07T13:02:33.267Z,100062.31
2022-08-07T13:06:04.790Z,100063.09
2022-08-07T13:10:19.925Z,100064.00
2022-08-07T13:13:47.995Z,100056.75
2022-08-07T13:17:06.509Z,100057.53
2022-08-07T13:20:21.700Z,100058.34
2022-08-07T13:24:04.276Z,100051.16
2022-08-07T13:27:20.721Z,100056.38
2022-08-07T13:30:39.624Z,100053.56
2022-08-07T13:34:30.629Z,100052.62
2022-08-07T13:37:25.652Z,100053.72
2022-08-07T13:40:35.588Z,100041.47
2022-08-07T13:43:52.385Z,100043.19
2022-08-07T13:46:59.526Z,100039.34
2022-08-07T13:50:35.197Z,100045.62
2022-08-07T13:53:35.989Z,100040.87
2022-08-07T13:57:02.711Z,100022.00
2022-08-07T14:00:26.159Z,100022.09
2022-08-07T14:04:06.848Z,100012.88
2022-08-07T14:06:54.672Z,100020.28
2022-08-07T14:10:02.957Z,100019.75
2022-08-07T14:13:33.191Z,100013.47
2022-08-07T14:16:44.959Z,100012.81
2022-08-07T14:20:42.554Z,100002.13
2022-08-07T14:24:00.826Z,100000.81
2022-08-07T14:27:00.912Z,99998.00
2022-08-07T14:33:47.657Z,99988.47
2022-08-07T14:36:56.391Z,99999.47
2022-08-07T14:40:18.278Z,99984.97
2022-08-07T14:43:59.336Z,99996.84
2022-08-07T14:50:18.620Z,99992.09
2022-08-07T14:54:03.467Z,99984.91
2022-08-07T14:56:48.483Z,99986.09
2022-08-07T15:00:05.262Z,99983.53
2022-08-07T15:03:16.423Z,99974.38
2022-08-07T15:06:27.941Z,99975.75
2022-08-07T15:12:58.816Z,99963.66
2022-08-07T15:16:11.139Z,99966.53
2022-08-07T15:19:17.885Z,99959.94
2022-08-07T15:22:29.423Z,99962.81
2022-08-07T15:25:37.628Z,99956.66
2022-08-07T15:28:51.701Z,99950.50
2022-08-07T15:32:02.796Z,99944.47
2022-08-07T15:35:14.582Z,99945.31
2022-08-07T15:38:30.268Z,99943.44
2022-08-07T15:42:45.602Z,99940.69
2022-08-07T15:45:58.194Z,99939.00
2022-08-07T15:52:30.252Z,99931.16
2022-08-07T15:55:53.566Z,99936.88
2022-08-07T15:59:00.034Z,99940.31
2022-08-07T16:02:04.701Z,99937.53
2022-08-07T16:05:15.508Z,99935.31
2022-08-07T16:08:32.379Z,99937.16
2022-08-07T16:11:57.739Z,99935.44
2022-08-07T16:15:54.412Z,99934.94
2022-08-07T16:19:09.507Z,99930.91
2022-08-07T16:23:05.533Z,99935.88
2022-08-07T16:26:30.856Z,99936.00
2022-08-07T16:30:11.187Z,99937.09
2022-08-07T16:34:02.437Z,99939.06
2022-08-07T16:37:02.749Z,99937.69
2022-08-07T16:41:02.306Z,99936.41
2022-08-07T16:45:04.144Z,99939.47
2022-08-07T16:48:07.800Z,99943.06
2022-08-07T16:52:35.374Z,99944.69
2022-08-07T16:56:05.379Z,99946.03
2022-08-07T16:59:17.806Z,99942.03
2022-08-07T17:02:51.477Z,99944.47
2022-08-07T17:06:29.937Z,99952.19
2022-08-07T17:10:06.160Z,99948.66
2022-08-07T17:13:15.906Z,99954.69
2022-08-07T17:16:22.109Z,99946.78
2022-08-07T17:20:01.957Z,99953.84
2022-08-07T17:23:31.974Z,99952.75
2022-08-07T17:27:03.565Z,99953.06
2022-08-07T17:30:14.355Z,99945.69
2022-08-07T17:34:09.101Z,99946.50
2022-08-07T17:36:59.782Z,99947.59
2022-08-07T17:40:30.417Z,99955.78
2022-08-07T17:44:01.328Z,99952.25
2022-08-07T17:47:16.604Z,99952.81
2022-08-07T17:50:46.864Z,99960.72
2022-08-07T17:54:00.690Z,99976.06
2022-08-07T17:57:18.670Z,99969.75
2022-08-07T18:00:32.755Z,99973.06
2022-08-07T18:04:04.403Z,99980.72
2022-08-07T18:07:20.337Z,99983.72
2022-08-07T18:11:53.603Z,99988.66
2022-08-07T18:14:28.017Z,99999.28
2022-08-07T18:18:33.094Z,100016.75
2022-08-07T18:21:38.167Z,100015.97
2022-08-07T18:24:37.774Z,100021.66
2022-08-07T18:28:15.253Z,100024.94
2022-08-07T18:31:59.816Z,100030.41
2022-08-07T18:35:10.502Z,100028.72
2022-08-07T18:38:54.851Z,100041.81
2022-08-07T18:42:16.602Z,100042.34
2022-08-07T18:45:40.030Z,100044.00
2022-08-07T18:50:19.686Z,100046.12
2022-08-07T18:52:53.939Z,100054.53
2022-08-07T18:56:31.634Z,100049.03
2022-08-07T18:59:57.188Z,100054.97
2022-08-07T19:03:11.682Z,100051.41
2022-08-07T19:06:17.689Z,100054.31
2022-08-07T19:09:57.190Z,100063.25
2022-08-07T19:13:21.864Z,100062.91
2022-08-07T19:17:00.689Z,100059.78
2022-08-07T19:20:01.930Z,100069.00
2022-08-07T19:23:18.345Z,100064.88
2022-08-07T19:26:29.109Z,100070.31
2022-08-07T19:31:00.549Z,100066.88
2022-08-07T19:33:15.350Z,100080.69
2022-08-07T19:36:28.014Z,100088.22
2022-08-07T19:39:56.459Z,100087.56
2022-08-07T19:42:56.676Z,100089.66
2022-08-07T19:46:07.992Z,100096.19
2022-08-07T19:49:17.212Z,100102.59
2022-08-07T19:52:22.630Z,100107.34
2022-08-07T19:55:25.685Z,100105.06
2022-08-07T19:58:53.114Z,100105.84
2022-08-07T20:01:58.124Z,100117.59
2022-08-07T20:05:08.016Z,100113.66
2022-08-07T20:08:14.590Z,100125.88
2022-08-07T20:11:23.258Z,100127.44
2022-08-07T20:14:54.011Z,100117.56
2022-08-07T20:18:06.032Z,100117.16
2022-08-07T20:21:22.329Z,100111.91
2022-08-07T20:24:29.883Z,100110.84
2022-08-07T20:27:47.539Z,100123.53
2022-08-07T20:30:51.450Z,100118.41
2022-08-07T20:34:00.905Z,100121.09
2022-08-07T20:37:05.814Z,100123.31
2022-08-07T20:40:32.367Z,100120.75
2022-08-07T20:43:34.120Z,100120.19
2022-08-07T20:46:44.150Z,100117.72
2022-08-07T20:50:00.040Z,100113.66
2022-08-07T20:53:05.744Z,100116.38
2022-08-07T20:56:10.263Z,100110.47
2022-08-07T20:59:27.285Z,100120.03
2022-08-07T21:03:03.687Z,100117.56
2022-08-07T21:06:21.637Z,100120.19
2022-08-07T21:09:51.699Z,100128.56
2022-08-07T21:12:57.950Z,100126.62
2022-08-07T21:16:02.635Z,100124.25
2022-08-07T21:19:09.258Z,100128.13
2022-08-07T21:22:19.521Z,100139.72
2022-08-07T21:25:38.889Z,100144.19
2022-08-07T21:29:18.273Z,100153.16
2022-08-07T21:32:46.989Z,100160.97
2022-08-07T21:36:11.930Z,100163.94
2022-08-07T21:39:46.302Z,100169.31
2022-08-07T21:43:05.563Z,100174.62
2022-08-07T21:46:24.711Z,100167.06
2022-08-07T21:50:02.852Z,100177.81
2022-08-07T21:53:17.358Z,100182.28
2022-08-07T21:56:49.128Z,100186.88
2022-08-07T22:00:04.546Z,100187.94
2022-08-07T22:03:18.747Z,100183.41
2022-08-07T22:06:45.301Z,100174.44
2022-08-07T22:09:57.226Z,100181.16
2022-08-07T22:13:09.004Z,100174.97
2022-08-07T22:16:42.255Z,100175.56
2022-08-07T22:19:45.997Z,100181.22
2022-08-07T22:23:17.830Z,100186.56
2022-08-07T22:26:28.623Z,100190.13
2022-08-07T22:29:48.319Z,100200.09
2022-08-07T22:33:05.403Z,100189.72
2022-08-07T22:36:19.977Z,100190.47
2022-08-07T22:39:53.533Z,100194.78
2022-08-07T22:43:07.767Z,100195.16
2022-08-07T22:47:01.967Z,100198.38
2022-08-07T22:50:29.112Z,100199.16
2022-08-07T22:54:09.429Z,100204.69
2022-08-07T22:57:37.366Z,100209.03
2022-08-07T23:00:53.206Z,100199.72
2022-08-07T23:04:16.248Z,100209.06
2022-08-07T23:07:40.312Z,100212.41
2022-08-07T23:11:08.590Z,100207.03
2022-08-07T23:14:40.689Z,100210.19
2022-08-07T23:17:54.644Z,100216.94
2022-08-07T23:21:16.702Z,100220.16
2022-08-07T23:24:45.517Z,100224.38
2022-08-07T23:28:22.014Z,100226.03
2022-08-07T23:32:48.939Z,100219.25
2022-08-07T23:35:20.043Z,100220.91
2022-08-07T23:38:42.772Z,100216.44
2022-08-07T23:42:05.107Z,100217.72
2022-08-07T23:46:01.582Z,100219.19
2022-08-07T23:49:05.353Z,100220.81
2022-08-07T23:53:08.845Z,100227.75
2022-08-07T23:55:57.351Z,100218.38
